Time;durP1;ratioP1;P1;durP2;ratioP2;P2;SDS_P1;SDS_P2;PMS_P1;PMS_P2;Temp;Humidity;BMP_temperature;BMP_pressure;BME280_temperature;BME280_humidity;BME280_pressure;Samples;Min_cycle;Max_cycle;Signal;HPM_P1;HPM_P2
2023/03/02 00:01:38;;;;;;;43.60;24.38;;;;;;;;;;5073568;28;20037;-64
2023/03/02 00:04:05;;;;;;;42.53;24.17;;;;;;;;;;5073410;28;20463;-64
2023/03/02 00:06:32;;;;;;;42.10;22.33;;;;;;;;;;5072467;28;20045;-64
2023/03/02 00:08:59;;;;;;;39.50;22.50;;;;;;;;;;5073147;28;20410;-64
2023/03/02 00:11:26;;;;;;;39.03;22.48;;;;;;;;;;5073293;28;20136;-64
2023/03/02 00:13:52;;;;;;;39.30;22.92;;;;;;;;;;5072644;28;20051;-64
2023/03/02 00:16:18;;;;;;;44.10;24.10;;;;;;;;;;5073098;28;20637;-64
2023/03/02 00:18:44;;;;;;;41.80;23.05;;;;;;;;;;5073090;28;20044;-64
2023/03/02 00:21:10;;;;;;;40.13;22.25;;;;;;;;;;5072032;28;20056;-64
2023/03/02 00:23:37;;;;;;;42.97;22.38;;;;;;;;;;5072939;28;20398;-64
2023/03/02 00:26:04;;;;;;;38.22;22.35;;;;;;;;;;5063899;28;20645;-64
2023/03/02 00:28:30;;;;;;;40.83;23.20;;;;;;;;;;5052384;28;20757;-64
2023/03/02 00:30:56;;;;;;;44.83;23.85;;;;;;;;;;5052881;28;20051;-64
2023/03/02 00:33:22;;;;;;;44.03;24.08;;;;;;;;;;5052710;28;20071;-64
2023/03/02 00:35:48;;;;;;;38.88;23.45;;;;;;;;;;5052587;28;20047;-64
2023/03/02 00:38:15;;;;;;;39.15;22.85;;;;;;;;;;5052553;28;20037;-64
2023/03/02 00:40:45;;;;;;;45.95;25.10;;;;;;;;;;5052633;28;20045;-64
2023/03/02 00:43:11;;;;;;;40.65;24.45;;;;;;;;;;5052161;28;20077;-64
2023/03/02 00:45:37;;;;;;;44.42;24.98;;;;;;;;;;5052471;28;20399;-64
2023/03/02 00:48:03;;;;;;;45.28;24.83;;;;;;;;;;5052585;28;20067;-64
2023/03/02 00:50:29;;;;;;;45.78;24.50;;;;;;;;;;5052697;28;20120;-64
2023/03/02 00:52:55;;;;;;;45.78;24.05;;;;;;;;;;5051887;28;20033;-64
2023/03/02 00:55:21;;;;;;;46.28;24.92;;;;;;;;;;5052694;28;20041;-64
2023/03/02 00:57:53;;;;;;;47.08;26.00;;;;;;;;;;5052492;28;20040;-64
2023/03/02 01:00:19;;;;;;;;;;;;;;;;;;5052046;28;20080;-64
2023/03/02 01:02:45;;;;;;;46.72;24.67;;;;;;;;;;5052318;28;19964;-64
2023/03/02 01:05:12;;;;;;;50.00;26.48;;;;;;;;;;5052543;28;20037;-64
2023/03/02 01:07:38;;;;;;;49.38;27.27;;;;;;;;;;5051512;28;20449;-64
2023/03/02 01:10:04;;;;;;;50.30;26.85;;;;;;;;;;5052237;28;20071;-64
2023/03/02 01:12:30;;;;;;;52.42;27.77;;;;;;;;;;5051908;28;20103;-64
2023/03/02 01:14:57;;;;;;;51.60;26.90;;;;;;;;;;5051794;28;20120;-64
2023/03/02 01:17:24;;;;;;;52.92;27.92;;;;;;;;;;5051678;28;20041;-64
2023/03/02 01:19:50;;;;;;;51.00;26.92;;;;;;;;;;5051838;28;20045;-64
2023/03/02 01:22:16;;;;;;;48.17;26.63;;;;;;;;;;5051006;28;20049;-64
2023/03/02 01:24:43;;;;;;;50.08;25.77;;;;;;;;;;5071643;28;20706;-64
2023/03/02 01:27:09;;;;;;;52.17;25.98;;;;;;;;;;5053716;28;20582;-64
2023/03/02 01:29:35;;;;;;;51.47;26.17;;;;;;;;;;5051254;28;20518;-64
2023/03/02 01:32:01;;;;;;;48.72;26.73;;;;;;;;;;5051480;28;20033;-64
2023/03/02 01:34:28;;;;;;;50.47;26.35;;;;;;;;;;5051730;28;20123;-64
2023/03/02 01:36:54;;;;;;;46.03;25.52;;;;;;;;;;5051144;28;20068;-64
2023/03/02 01:39:21;;;;;;;50.05;26.52;;;;;;;;;;5051452;28;20044;-64
2023/03/02 01:41:47;;;;;;;49.85;26.88;;;;;;;;;;5051709;28;20087;-64
2023/03/02 01:44:32;;;;;;;50.67;27.15;;;;;;;;;;5051058;28;20041;-64
2023/03/02 01:46:58;;;;;;;40.97;22.92;;;;;;;;;;5051538;28;20033;-64
2023/03/02 01:49:24;;;;;;;43.78;23.75;;;;;;;;;;5051544;28;20375;-64
2023/03/02 01:51:51;;;;;;;43.15;23.17;;;;;;;;;;5050597;28;20040;-64
2023/03/02 01:54:21;;;;;;;45.85;24.75;;;;;;;;;;5050418;28;20479;-64
2023/03/02 01:56:49;;;;;;;45.60;24.63;;;;;;;;;;5051588;28;20056;-64
2023/03/02 01:59:17;;;;;;;44.25;23.58;;;;;;;;;;5050398;28;20076;-64
2023/03/02 02:01:45;;;;;;;40.03;23.00;;;;;;;;;;5051204;28;20352;-64
2023/03/02 02:04:11;;;;;;;42.33;23.35;;;;;;;;;;5051148;28;20049;-64
2023/03/02 02:06:38;;;;;;;44.33;23.77;;;;;;;;;;5050720;28;20118;-64
2023/03/02 02:09:07;;;;;;;42.42;23.58;;;;;;;;;;5051104;28;20048;-64
2023/03/02 02:11:33;;;;;;;44.83;23.25;;;;;;;;;;5051270;28;20383;-64
2023/03/02 02:14:00;;;;;;;41.85;22.77;;;;;;;;;;5050364;28;20098;-64
2023/03/02 02:16:26;;;;;;;46.63;23.17;;;;;;;;;;5051064;28;20043;-64
2023/03/02 02:18:53;;;;;;;40.67;23.60;;;;;;;;;;5050714;28;20124;-64
2023/03/02 02:21:20;;;;;;;45.25;24.23;;;;;;;;;;5050187;28;20510;-64
2023/03/02 02:23:54;;;;;;;43.95;23.80;;;;;;;;;;5062538;28;20479;-64
2023/03/02 02:26:30;;;;;;;45.50;24.67;;;;;;;;;;5059576;28;20070;-64
2023/03/02 02:29:01;;;;;;;39.78;23.02;;;;;;;;;;5049928;28;20041;-64
2023/03/02 02:31:33;;;;;;;48.22;24.60;;;;;;;;;;5050630;28;20084;-64
2023/03/02 02:34:03;;;;;;;43.17;24.63;;;;;;;;;;5050772;28;20048;-64
2023/03/02 02:36:32;;;;;;;47.45;23.90;;;;;;;;;;5050033;28;20047;-64
2023/03/02 02:39:01;;;;;;;49.03;25.70;;;;;;;;;;5050692;28;20037;-64
2023/03/02 02:41:29;;;;;;;43.58;23.67;;;;;;;;;;5050672;28;20450;-64
2023/03/02 02:43:55;;;;;;;45.75;24.52;;;;;;;;;;5050172;28;20095;-64
2023/03/02 02:46:21;;;;;;;47.83;24.88;;;;;;;;;;5050730;28;20045;-64
2023/03/02 02:48:47;;;;;;;49.42;25.45;;;;;;;;;;5048973;28;20532;-64
2023/03/02 02:51:17;;;;;;;48.90;24.73;;;;;;;;;;5048505;28;20556;-64
2023/03/02 02:53:57;;;;;;;47.17;24.70;;;;;;;;;;5050801;28;20079;-64
2023/03/02 02:56:25;;;;;;;51.33;25.92;;;;;;;;;;5050666;28;20088;-64
2023/03/02 02:58:52;;;;;;;49.30;24.98;;;;;;;;;;5049933;28;20098;-64
2023/03/02 03:01:24;;;;;;;43.22;22.35;;;;;;;;;;5050624;28;20041;-64
2023/03/02 03:03:52;;;;;;;50.10;23.88;;;;;;;;;;5049148;28;20112;-64
2023/03/02 03:06:19;;;;;;;49.05;24.95;;;;;;;;;;5053811;28;20065;-64
2023/03/02 03:08:45;;;;;;;46.33;24.45;;;;;;;;;;5054660;28;20423;-64
2023/03/02 03:11:13;;;;;;;48.90;24.98;;;;;;;;;;5054393;28;20041;-64
2023/03/02 03:13:40;;;;;;;47.88;24.85;;;;;;;;;;5054047;28;20077;-64
2023/03/02 03:16:09;;;;;;;48.30;24.92;;;;;;;;;;5054162;28;20041;-64
2023/03/02 03:18:35;;;;;;;48.08;23.95;;;;;;;;;;5054278;28;20041;-64
2023/03/02 03:21:01;;;;;;;50.10;25.17;;;;;;;;;;5053200;28;20045;-64
2023/03/02 03:23:27;;;;;;;47.88;24.95;;;;;;;;;;5063591;28;20051;-64
2023/03/02 03:25:53;;;;;;;50.45;26.17;;;;;;;;;;5066014;28;20045;-64
2023/03/02 03:28:19;;;;;;;51.20;24.77;;;;;;;;;;5052523;28;20045;-64
2023/03/02 03:30:45;;;;;;;48.95;25.65;;;;;;;;;;5054101;28;20083;-64
2023/03/02 03:33:11;;;;;;;50.72;24.98;;;;;;;;;;5054325;28;20748;-64
2023/03/02 03:35:38;;;;;;;52.22;25.15;;;;;;;;;;5053406;28;20048;-64
2023/03/02 03:38:05;;;;;;;47.65;24.25;;;;;;;;;;5053839;28;20045;-64
2023/03/02 03:40:33;;;;;;;56.65;26.27;;;;;;;;;;5053638;28;20131;-64
2023/03/02 03:43:00;;;;;;;53.38;25.33;;;;;;;;;;5051723;28;20369;-64
2023/03/02 03:45:26;;;;;;;51.55;25.38;;;;;;;;;;5053911;28;20511;-64
2023/03/02 03:47:52;;;;;;;50.33;25.08;;;;;;;;;;5053723;28;20080;-64
2023/03/02 03:50:18;;;;;;;51.38;25.20;;;;;;;;;;5053064;28;20041;-64
2023/03/02 03:52:44;;;;;;;50.78;24.15;;;;;;;;;;5053819;28;20136;-64
2023/03/02 03:55:11;;;;;;;54.42;26.65;;;;;;;;;;5053763;28;20037;-64
2023/03/02 03:57:37;;;;;;;48.88;24.35;;;;;;;;;;5052898;28;20452;-64
2023/03/02 04:00:06;;;;;;;52.08;24.15;;;;;;;;;;5053195;28;20056;-64
2023/03/02 04:02:33;;;;;;;51.58;24.25;;;;;;;;;;5053165;28;20055;-64
2023/03/02 04:05:05;;;;;;;48.92;23.90;;;;;;;;;;5052615;28;20048;-64
2023/03/02 04:07:31;;;;;;;51.55;23.77;;;;;;;;;;5053421;28;20045;-64
2023/03/02 04:10:02;;;;;;;52.45;24.52;;;;;;;;;;5053434;28;20071;-64
2023/03/02 04:12:36;;;;;;;47.88;23.48;;;;;;;;;;5052670;28;20543;-64
2023/03/02 04:15:04;;;;;;;47.47;23.63;;;;;;;;;;5053355;28;20056;-64
2023/03/02 04:17:30;;;;;;;45.70;22.75;;;;;;;;;;5050646;28;20044;-64
2023/03/02 04:19:56;;;;;;;49.75;21.73;;;;;;;;;;5052284;28;20047;-64
2023/03/02 04:22:22;;;;;;;54.15;23.00;;;;;;;;;;5052872;28;20491;-64
2023/03/02 04:24:49;;;;;;;45.95;21.85;;;;;;;;;;5073217;28;20051;-64
2023/03/02 04:27:15;;;;;;;49.00;22.05;;;;;;;;;;5053420;28;20426;-64
2023/03/02 04:29:42;;;;;;;41.03;20.60;;;;;;;;;;5052935;28;20144;-64
2023/03/02 04:32:09;;;;;;;45.75;20.35;;;;;;;;;;5053050;28;20048;-64
2023/03/02 04:34:35;;;;;;;38.17;19.52;;;;;;;;;;5052305;28;20084;-64
2023/03/02 04:37:01;;;;;;;42.65;19.02;;;;;;;;;;5052936;28;20045;-64
2023/03/02 04:39:28;;;;;;;43.63;20.48;;;;;;;;;;5052833;28;20541;-64
2023/03/02 04:41:54;;;;;;;55.67;20.55;;;;;;;;;;5052222;28;20541;-64
2023/03/02 04:44:20;;;;;;;46.35;19.40;;;;;;;;;;5052743;28;20033;-64
2023/03/02 04:46:47;;;;;;;52.88;20.88;;;;;;;;;;5052807;28;20086;-64
2023/03/02 04:49:14;;;;;;;50.60;20.13;;;;;;;;;;5051733;28;20037;-64
2023/03/02 04:51:41;;;;;;;61.17;23.23;;;;;;;;;;5052806;28;20551;-64
2023/03/02 04:54:10;;;;;;;49.45;20.17;;;;;;;;;;5052611;28;20059;-64
2023/03/02 04:56:36;;;;;;;62.88;21.25;;;;;;;;;;5052011;28;20118;-64
2023/03/02 04:59:02;;;;;;;53.78;22.08;;;;;;;;;;5052369;28;20045;-64
2023/03/02 05:01:28;;;;;;;48.97;21.02;;;;;;;;;;5052478;28;20033;-64
2023/03/02 05:03:54;;;;;;;58.80;22.60;;;;;;;;;;5051789;28;20037;-64
2023/03/02 05:06:21;;;;;;;58.50;22.00;;;;;;;;;;5052443;28;20044;-64
2023/03/02 05:08:47;;;;;;;57.05;22.80;;;;;;;;;;5051877;28;20114;-64
2023/03/02 05:11:23;;;;;;;56.50;21.60;;;;;;;;;;5051655;28;20076;-64
2023/03/02 05:13:50;;;;;;;53.90;22.55;;;;;;;;;;5052182;28;20937;-64
2023/03/02 05:16:16;;;;;;;51.17;22.27;;;;;;;;;;5052211;28;20687;-64
2023/03/02 05:18:43;;;;;;;49.08;21.67;;;;;;;;;;5051126;28;20084;-64
2023/03/02 05:21:09;;;;;;;49.72;22.20;;;;;;;;;;5051886;28;20510;-64
2023/03/02 05:23:35;;;;;;;49.42;21.45;;;;;;;;;;5057483;28;20088;-64
2023/03/02 05:26:01;;;;;;;43.42;20.63;;;;;;;;;;5060215;28;20044;-64
2023/03/02 05:28:27;;;;;;;49.30;20.88;;;;;;;;;;5071560;28;20045;-64
2023/03/02 05:30:53;;;;;;;48.10;21.23;;;;;;;;;;5072050;28;20036;-64
2023/03/02 05:33:20;;;;;;;47.33;23.17;;;;;;;;;;5071873;28;20090;-64
2023/03/02 05:35:46;;;;;;;49.97;21.60;;;;;;;;;;5053964;28;20044;-64
2023/03/02 05:38:12;;;;;;;61.15;21.77;;;;;;;;;;5071793;28;20079;-64
2023/03/02 05:40:39;;;;;;;53.30;21.77;;;;;;;;;;5071063;28;20048;-64
2023/03/02 05:43:05;;;;;;;49.63;21.90;;;;;;;;;;5072144;28;20040;-64
2023/03/02 05:45:32;;;;;;;66.03;22.38;;;;;;;;;;5071881;28;20083;-64
2023/03/02 05:47:58;;;;;;;80.35;23.27;;;;;;;;;;5058499;28;20036;-64
2023/03/02 05:50:24;;;;;;;85.40;23.02;;;;;;;;;;5051946;28;20663;-64
2023/03/02 05:52:50;;;;;;;61.28;22.50;;;;;;;;;;5051774;28;20048;-64
2023/03/02 05:55:17;;;;;;;56.75;22.50;;;;;;;;;;5051375;28;20123;-64
2023/03/02 05:57:43;;;;;;;46.58;20.85;;;;;;;;;;5050773;28;20395;-64
2023/03/02 06:00:11;;;;;;;61.92;23.25;;;;;;;;;;5051408;28;20045;-64
2023/03/02 06:02:38;;;;;;;54.42;22.13;;;;;;;;;;5051268;28;20037;-64
2023/03/02 06:05:24;;;;;;;45.90;20.38;;;;;;;;;;5051373;28;20037;-64
2023/03/02 06:07:50;;;;;;;70.75;22.52;;;;;;;;;;5051680;28;20086;-64
2023/03/02 06:10:16;;;;;;;72.03;23.73;;;;;;;;;;5050935;28;20775;-64
2023/03/02 06:12:42;;;;;;;47.22;21.75;;;;;;;;;;5051608;28;20072;-64
2023/03/02 06:15:09;;;;;;;74.45;23.08;;;;;;;;;;5051762;28;20124;-64
2023/03/02 06:17:35;;;;;;;52.28;22.30;;;;;;;;;;5051070;28;20045;-64
2023/03/02 06:20:03;;;;;;;56.72;22.95;;;;;;;;;;5051271;28;20037;-64
2023/03/02 06:22:29;;;;;;;62.13;23.70;;;;;;;;;;5052308;28;20053;-64
2023/03/02 06:24:55;;;;;;;53.45;22.75;;;;;;;;;;5070908;28;20037;-64
2023/03/02 06:27:21;;;;;;;78.03;23.42;;;;;;;;;;5051440;28;20033;-64
2023/03/02 06:29:48;;;;;;;52.55;21.88;;;;;;;;;;5050971;28;20060;-64
2023/03/02 06:32:14;;;;;;;63.17;21.77;;;;;;;;;;5049153;28;20044;-64
2023/03/02 06:34:40;;;;;;;62.35;21.05;;;;;;;;;;5051378;28;20661;-64
2023/03/02 06:37:06;;;;;;;65.47;22.73;;;;;;;;;;5051171;28;20076;-65
2023/03/02 06:39:32;;;;;;;51.72;21.15;;;;;;;;;;5049551;28;20480;-64
2023/03/02 06:41:59;;;;;;;49.25;20.38;;;;;;;;;;5051123;28;20106;-64
2023/03/02 06:44:25;;;;;;;51.53;20.95;;;;;;;;;;5051276;28;20049;-64
2023/03/02 06:46:51;;;;;;;54.95;22.45;;;;;;;;;;5050226;28;20033;-64
2023/03/02 06:49:17;;;;;;;61.13;23.00;;;;;;;;;;5051080;28;20041;-64
2023/03/02 06:51:43;;;;;;;54.38;20.48;;;;;;;;;;5051240;28;20476;-64
2023/03/02 06:54:09;;;;;;;59.80;23.98;;;;;;;;;;5050670;28;20041;-64
2023/03/02 06:56:35;;;;;;;63.85;24.15;;;;;;;;;;5051274;28;20040;-64
2023/03/02 06:59:01;;;;;;;80.15;25.00;;;;;;;;;;5050986;28;20471;-64
2023/03/02 07:01:31;;;;;;;57.15;21.65;;;;;;;;;;5050233;28;20553;-64
2023/03/02 07:03:58;;;;;;;71.00;24.05;;;;;;;;;;5050993;28;20044;-64
2023/03/02 07:06:24;;;;;;;65.65;23.52;;;;;;;;;;5050832;28;20088;-64
2023/03/02 07:08:50;;;;;;;67.28;24.70;;;;;;;;;;5049978;28;20581;-64
2023/03/02 07:11:16;;;;;;;66.60;23.75;;;;;;;;;;5050669;28;20072;-64
2023/03/02 07:13:42;;;;;;;52.58;22.00;;;;;;;;;;5050874;28;20040;-64
2023/03/02 07:16:09;;;;;;;50.35;22.10;;;;;;;;;;5050314;28;20049;-64
2023/03/02 07:18:35;;;;;;;55.50;23.30;;;;;;;;;;5051243;28;20126;-64
2023/03/02 07:21:02;;;;;;;46.33;20.80;;;;;;;;;;5045493;28;20848;-64
2023/03/02 07:23:28;;;;;;;60.00;21.60;;;;;;;;;;5057677;28;20032;-64
2023/03/02 07:25:54;;;;;;;47.15;20.92;;;;;;;;;;5059396;28;20387;-64
2023/03/02 07:28:23;;;;;;;48.33;22.60;;;;;;;;;;5058999;28;20040;-64
2023/03/02 07:30:49;;;;;;;52.25;22.10;;;;;;;;;;5061576;28;20052;-64
2023/03/02 07:33:15;;;;;;;49.67;21.10;;;;;;;;;;5065050;28;20040;-66
2023/03/02 07:35:41;;;;;;;60.33;22.45;;;;;;;;;;5048476;28;20129;-65
2023/03/02 07:38:07;;;;;;;49.88;21.40;;;;;;;;;;5049069;28;20430;-64
2023/03/02 07:40:33;;;;;;;52.83;22.13;;;;;;;;;;5037506;28;20045;-64
2023/03/02 07:43:00;;;;;;;49.30;21.75;;;;;;;;;;5055330;28;20049;-65
2023/03/02 07:45:26;;;;;;;44.78;21.48;;;;;;;;;;5051880;28;20037;-67
2023/03/02 07:47:52;;;;;;;48.40;21.52;;;;;;;;;;5057535;28;20541;-65
2023/03/02 07:50:18;;;;;;;46.78;21.77;;;;;;;;;;5058297;28;20044;-65
2023/03/02 07:52:44;;;;;;;49.92;21.50;;;;;;;;;;5051604;28;20755;-65
2023/03/02 07:55:10;;;;;;;51.95;21.17;;;;;;;;;;5052989;28;20124;-66
2023/03/02 07:57:36;;;;;;;50.28;22.55;;;;;;;;;;5052310;28;20084;-65
2023/03/02 08:00:03;;;;;;;48.97;20.98;;;;;;;;;;5070737;28;20498;-65
2023/03/02 08:02:29;;;;;;;46.80;21.33;;;;;;;;;;5053958;28;20028;-66
2023/03/02 08:04:55;;;;;;;47.42;21.77;;;;;;;;;;5052389;28;20033;-65
2023/03/02 08:07:21;;;;;;;46.10;22.00;;;;;;;;;;5066371;28;20471;-66
2023/03/02 08:09:47;;;;;;;45.53;20.20;;;;;;;;;;5056930;28;20160;-64
2023/03/02 08:12:13;;;;;;;44.70;22.23;;;;;;;;;;5051519;28;20114;-63
2023/03/02 08:14:39;;;;;;;45.17;19.65;;;;;;;;;;5060986;28;20044;-64
2023/03/02 08:17:05;;;;;;;40.20;20.75;;;;;;;;;;5066251;28;20040;-64
2023/03/02 08:19:32;;;;;;;42.80;19.85;;;;;;;;;;5055705;28;20151;-64
2023/03/02 08:21:59;;;;;;;37.28;19.25;;;;;;;;;;5056416;28;20102;-64
2023/03/02 08:24:26;;;;;;;36.42;17.77;;;;;;;;;;5053093;28;20037;-64
2023/03/02 08:26:52;;;;;;;39.60;17.75;;;;;;;;;;5056923;28;20041;-65
2023/03/02 08:29:18;;;;;;;35.92;18.17;;;;;;;;;;5052335;28;20557;-65
2023/03/02 08:31:44;;;;;;;34.90;17.48;;;;;;;;;;5055990;28;20040;-65
2023/03/02 08:34:10;;;;;;;34.10;17.58;;;;;;;;;;5051868;28;20075;-65
2023/03/02 08:36:36;;;;;;;32.55;16.90;;;;;;;;;;5069419;28;20036;-66
2023/03/02 08:39:02;;;;;;;36.67;18.80;;;;;;;;;;5054087;28;20055;-65
2023/03/02 08:41:29;;;;;;;34.88;17.20;;;;;;;;;;5054714;28;20048;-65
2023/03/02 08:43:55;;;;;;;33.33;17.67;;;;;;;;;;5068933;28;20040;-66
2023/03/02 08:46:21;;;;;;;33.58;17.55;;;;;;;;;;5053658;28;20073;-65
2023/03/02 08:48:51;;;;;;;34.13;16.90;;;;;;;;;;5051560;28;20048;-64
2023/03/02 08:51:21;;;;;;;33.20;17.05;;;;;;;;;;5058395;28;20037;-65
2023/03/02 08:53:53;;;;;;;30.70;16.83;;;;;;;;;;5051714;28;20048;-64
2023/03/02 08:56:24;;;;;;;35.85;17.48;;;;;;;;;;5071566;28;20052;-65
2023/03/02 08:58:51;;;;;;;32.72;18.27;;;;;;;;;;5066895;28;20379;-66
2023/03/02 09:01:19;;;;;;;36.40;18.90;;;;;;;;;;5063555;28;20063;-65
2023/03/02 09:03:45;;;;;;;34.83;18.23;;;;;;;;;;5068007;28;20483;-65
2023/03/02 09:06:11;;;;;;;34.33;17.88;;;;;;;;;;5056028;28;20462;-65
2023/03/02 09:08:38;;;;;;;33.30;18.05;;;;;;;;;;5050766;28;20049;-65
2023/03/02 09:11:04;;;;;;;34.83;17.95;;;;;;;;;;5062534;28;20044;-66
2023/03/02 09:13:30;;;;;;;35.90;18.17;;;;;;;;;;5061519;28;20056;-66
2023/03/02 09:15:56;;;;;;;31.35;17.85;;;;;;;;;;5068480;28;20127;-65
2023/03/02 09:18:22;;;;;;;40.42;18.58;;;;;;;;;;5059729;28;20040;-64
2023/03/02 09:20:51;;;;;;;34.70;18.15;;;;;;;;;;5067987;28;20464;-64
2023/03/02 09:23:19;;;;;;;30.67;16.83;;;;;;;;;;5058007;28;20087;-64
2023/03/02 09:25:46;;;;;;;32.72;17.83;;;;;;;;;;5055668;28;20653;-64
2023/03/02 09:28:12;;;;;;;38.75;18.83;;;;;;;;;;5059445;28;20037;-65
2023/03/02 09:30:38;;;;;;;34.35;18.10;;;;;;;;;;5056158;28;20040;-64
2023/03/02 09:33:04;;;;;;;36.38;18.08;;;;;;;;;;5053623;28;20041;-65
2023/03/02 09:35:30;;;;;;;35.60;19.40;;;;;;;;;;5064671;28;20072;-65
2023/03/02 09:37:56;;;;;;;38.33;19.10;;;;;;;;;;5076013;28;20037;-65
2023/03/02 09:40:24;;;;;;;36.47;18.27;;;;;;;;;;5070968;28;20166;-65
2023/03/02 09:43:09;;;;;;;32.30;18.00;;;;;;;;;;5060343;28;20041;-65
2023/03/02 09:45:35;;;;;;;37.95;18.23;;;;;;;;;;5062776;28;20041;-64
2023/03/02 09:48:01;;;;;;;28.88;17.30;;;;;;;;;;5055722;28;20037;-64
2023/03/02 09:50:30;;;;;;;31.80;18.15;;;;;;;;;;5053511;28;20128;-63
2023/03/02 09:53:22;;;;;;;37.75;18.95;;;;;;;;;;5056967;28;20045;-65
2023/03/02 09:55:52;;;;;;;33.55;17.83;;;;;;;;;;5065922;28;20490;-64
2023/03/02 09:58:20;;;;;;;32.10;18.08;;;;;;;;;;5057151;28;20119;-64
2023/03/02 10:00:46;;;;;;;29.77;17.70;;;;;;;;;;5039984;28;20048;-64
2023/03/02 10:03:17;;;;;;;34.83;17.92;;;;;;;;;;5060548;28;20037;-64
2023/03/02 10:05:53;;;;;;;30.60;17.92;;;;;;;;;;5061423;28;20112;-63
2023/03/02 10:08:21;;;;;;;35.05;18.83;;;;;;;;;;5070312;28;20147;-65
2023/03/02 10:10:53;;;;;;;30.52;17.38;;;;;;;;;;5058833;28;20046;-65
2023/03/02 10:13:19;;;;;;;34.95;19.10;;;;;;;;;;5057985;28;20037;-64
2023/03/02 10:15:59;;;;;;;35.28;19.38;;;;;;;;;;5064181;28;20036;-65
2023/03/02 10:18:38;;;;;;;35.05;19.38;;;;;;;;;;5059109;28;20047;-66
2023/03/02 10:21:20;;;;;;;35.22;18.70;;;;;;;;;;5049643;28;20083;-66
2023/03/02 10:23:52;;;;;;;36.25;19.33;;;;;;;;;;5048434;28;20407;-64
2023/03/02 10:26:22;;;;;;;30.45;17.17;;;;;;;;;;5050883;28;20044;-65
2023/03/02 10:28:50;;;;;;;34.90;19.20;;;;;;;;;;5062350;28;20541;-66
2023/03/02 10:31:27;;;;;;;31.67;18.17;;;;;;;;;;5032020;28;20534;-64
2023/03/02 10:33:54;;;;;;;33.10;18.02;;;;;;;;;;5055433;28;20051;-64
2023/03/02 10:36:49;;;;;;;30.38;17.70;;;;;;;;;;5049629;28;20067;-65
2023/03/02 10:39:16;;;;;;;33.88;19.35;;;;;;;;;;5050411;28;20056;-65
2023/03/02 10:42:12;;;;;;;34.17;19.30;;;;;;;;;;5065292;28;20429;-65
2023/03/02 10:44:40;;;;;;;34.78;18.95;;;;;;;;;;5043794;28;20110;-66
2023/03/02 10:47:07;;;;;;;31.27;17.10;;;;;;;;;;5052514;28;20545;-66
2023/03/02 10:49:38;;;;;;;33.67;19.00;;;;;;;;;;5064327;28;20057;-65
2023/03/02 10:52:04;;;;;;;38.22;19.80;;;;;;;;;;5051793;28;20407;-66
2023/03/02 10:54:31;;;;;;;33.03;18.73;;;;;;;;;;5052765;28;20062;-67
2023/03/02 10:57:01;;;;;;;35.47;18.67;;;;;;;;;;5069762;28;20044;-66
2023/03/02 10:59:37;;;;;;;32.65;18.67;;;;;;;;;;5040417;28;20067;-65
2023/03/02 11:02:11;;;;;;;36.30;19.00;;;;;;;;;;5054966;28;20045;-65
2023/03/02 11:04:37;;;;;;;32.88;18.30;;;;;;;;;;5069646;28;20083;-67
2023/03/02 11:07:30;;;;;;;31.42;19.60;;;;;;;;;;5053921;28;20511;-67
2023/03/02 11:10:01;;;;;;;34.25;19.35;;;;;;;;;;5055221;28;20056;-66
2023/03/02 11:12:27;;;;;;;33.22;19.35;;;;;;;;;;5045858;28;20079;-70
2023/03/02 11:15:09;;;;;;;33.58;18.33;;;;;;;;;;5051425;28;20191;-64
2023/03/02 11:17:37;;;;;;;34.15;19.85;;;;;;;;;;5059117;28;20140;-67
2023/03/02 11:20:03;;;;;;;34.40;19.35;;;;;;;;;;5049520;28;20045;-64
2023/03/02 11:22:33;;;;;;;35.00;19.88;;;;;;;;;;5056475;28;20055;-65
2023/03/02 11:25:02;;;;;;;30.08;18.20;;;;;;;;;;5059485;28;20040;-64
2023/03/02 11:27:30;;;;;;;32.60;18.17;;;;;;;;;;5056085;28;20468;-65
2023/03/02 11:30:02;;;;;;;31.52;19.23;;;;;;;;;;5063983;28;20630;-67
2023/03/02 11:32:34;;;;;;;32.85;19.40;;;;;;;;;;5052500;28;20045;-66
2023/03/02 11:35:02;;;;;;;33.78;18.60;;;;;;;;;;5052795;28;20047;-65
2023/03/02 11:37:37;;;;;;;33.00;18.90;;;;;;;;;;5063032;28;20041;-65
2023/03/02 11:40:22;;;;;;;31.85;18.17;;;;;;;;;;5052928;28;20095;-65
2023/03/02 11:42:49;;;;;;;34.90;18.92;;;;;;;;;;5052806;28;20036;-66
2023/03/02 11:45:17;;;;;;;33.42;18.90;;;;;;;;;;5051767;28;20091;-66
2023/03/02 11:48:05;;;;;;;33.08;18.67;;;;;;;;;;5053744;28;20055;-64
2023/03/02 11:50:33;;;;;;;35.10;19.20;;;;;;;;;;5052669;28;20029;-68
2023/03/02 11:53:01;;;;;;;33.53;18.50;;;;;;;;;;5053991;28;20124;-67
2023/03/02 11:55:28;;;;;;;37.00;20.00;;;;;;;;;;5053110;28;20045;-68
2023/03/02 11:58:00;;;;;;;35.90;19.90;;;;;;;;;;5052687;28;20130;-68
2023/03/02 12:00:36;;;;;;;34.92;19.73;;;;;;;;;;5051440;28;20120;-68
2023/03/02 12:03:07;;;;;;;33.35;18.92;;;;;;;;;;5055773;28;20072;-67
2023/03/02 12:05:35;;;;;;;35.78;20.42;;;;;;;;;;5068188;28;20041;-67
2023/03/02 12:08:06;;;;;;;39.50;19.80;;;;;;;;;;5064875;28;20063;-67
2023/03/02 12:10:40;;;;;;;33.83;19.70;;;;;;;;;;5060786;28;20043;-67
2023/03/02 12:13:06;;;;;;;33.63;19.13;;;;;;;;;;5052594;28;20106;-64
2023/03/02 12:15:40;;;;;;;34.58;18.92;;;;;;;;;;5065083;28;20399;-64
2023/03/02 12:18:21;;;;;;;34.30;19.05;;;;;;;;;;5053198;28;20037;-65
2023/03/02 12:21:01;;;;;;;30.52;17.73;;;;;;;;;;5070018;28;20037;-65
2023/03/02 12:23:28;;;;;;;37.45;19.27;;;;;;;;;;5054498;28;20479;-65
2023/03/02 12:26:02;;;;;;;34.88;19.50;;;;;;;;;;5052968;28;20067;-65
2023/03/02 12:28:51;;;;;;;32.38;18.67;;;;;;;;;;5052509;28;20048;-66
2023/03/02 12:31:17;;;;;;;30.73;18.20;;;;;;;;;;5052914;28;20049;-65
2023/03/02 12:33:46;;;;;;;33.30;18.58;;;;;;;;;;5068458;28;20040;-66
2023/03/02 12:36:14;;;;;;;32.00;17.77;;;;;;;;;;5052974;28;20515;-65
2023/03/02 12:38:44;;;;;;;32.92;19.63;;;;;;;;;;5051981;28;20084;-66
2023/03/02 12:41:11;;;;;;;34.30;19.23;;;;;;;;;;5052301;28;20049;-66
2023/03/02 12:43:41;;;;;;;32.55;18.75;;;;;;;;;;5063406;28;20048;-66
2023/03/02 12:46:20;;;;;;;33.38;18.65;;;;;;;;;;5051385;28;20041;-66
2023/03/02 12:48:49;;;;;;;35.00;19.38;;;;;;;;;;5068747;28;20040;-67
2023/03/02 12:51:42;;;;;;;32.08;19.27;;;;;;;;;;5060471;28;20090;-66
2023/03/02 12:54:13;;;;;;;36.15;18.52;;;;;;;;;;5065487;28;20044;-66
2023/03/02 12:56:39;;;;;;;32.85;18.83;;;;;;;;;;5067277;28;20064;-67
2023/03/02 12:59:05;;;;;;;34.70;18.50;;;;;;;;;;5057214;28;20063;-69
2023/03/02 13:01:32;;;;;;;34.55;18.63;;;;;;;;;;5050580;28;20137;-65
2023/03/02 13:03:58;;;;;;;32.90;18.20;;;;;;;;;;5061121;28;20048;-64
2023/03/02 13:06:27;;;;;;;34.13;18.63;;;;;;;;;;5063552;28;20048;-65
2023/03/02 13:08:55;;;;;;;33.55;18.33;;;;;;;;;;5068466;28;20051;-67
2023/03/02 13:11:31;;;;;;;30.20;16.58;;;;;;;;;;5054474;28;20068;-66
2023/03/02 13:13:58;;;;;;;28.95;17.35;;;;;;;;;;5047607;28;20112;-65
2023/03/02 13:16:30;;;;;;;30.20;16.48;;;;;;;;;;5064337;28;20072;-65
2023/03/02 13:18:56;;;;;;;;;;;;;;;;;;5059447;28;20084;-65
2023/03/02 13:21:30;;;;;;;26.73;15.80;;;;;;;;;;5071286;28;19924;-66
2023/03/02 13:23:56;;;;;;;26.38;15.05;;;;;;;;;;5062635;28;20052;-66
2023/03/02 13:26:30;;;;;;;26.83;14.40;;;;;;;;;;5050940;28;20071;-66
2023/03/02 13:29:06;;;;;;;27.17;13.60;;;;;;;;;;5068219;28;20074;-65
2023/03/02 13:31:32;;;;;;;25.65;13.40;;;;;;;;;;5059388;28;20047;-65
2023/03/02 13:34:00;;;;;;;24.23;13.20;;;;;;;;;;5066625;28;20119;-66
2023/03/02 13:36:27;;;;;;;23.60;12.57;;;;;;;;;;5046522;28;20382;-67
2023/03/02 13:38:55;;;;;;;18.35;11.90;;;;;;;;;;5051014;28;20430;-66
2023/03/02 13:41:25;;;;;;;19.50;10.95;;;;;;;;;;5049321;28;20091;-66
2023/03/02 13:43:51;;;;;;;18.30;10.95;;;;;;;;;;5068962;28;20467;-67
2023/03/02 13:46:17;;;;;;;18.45;11.35;;;;;;;;;;5064493;28;20451;-67
2023/03/02 13:49:19;;;;;;;20.52;12.82;;;;;;;;;;5048475;28;20048;-66
2023/03/02 13:51:46;;;;;;;18.23;11.10;;;;;;;;;;5046517;28;20045;-65
2023/03/02 13:54:32;;;;;;;17.13;10.73;;;;;;;;;;5052391;28;20052;-65
2023/03/02 13:57:01;;;;;;;18.42;11.23;;;;;;;;;;5050168;28;20091;-67
2023/03/02 13:59:27;;;;;;;17.67;10.57;;;;;;;;;;5050310;28;20067;-67
2023/03/02 14:01:53;;;;;;;19.05;10.43;;;;;;;;;;5050945;28;20052;-67
2023/03/02 14:04:21;;;;;;;17.85;11.57;;;;;;;;;;5060668;28;20032;-67
2023/03/02 14:06:48;;;;;;;17.35;10.77;;;;;;;;;;5061136;28;20041;-67
2023/03/02 14:09:14;;;;;;;14.68;10.10;;;;;;;;;;5048919;28;20075;-67
2023/03/02 14:11:45;;;;;;;16.85;10.38;;;;;;;;;;5049587;28;20049;-67
2023/03/02 14:14:13;;;;;;;16.48;10.27;;;;;;;;;;5050675;28;20041;-67
2023/03/02 14:16:40;;;;;;;17.42;10.38;;;;;;;;;;5063687;28;20755;-65
2023/03/02 14:19:06;;;;;;;16.95;10.60;;;;;;;;;;5057843;28;20468;-66
2023/03/02 14:21:34;;;;;;;17.83;10.68;;;;;;;;;;5050473;28;20110;-67
2023/03/02 14:24:00;;;;;;;15.82;9.65;;;;;;;;;;5058044;28;20094;-67
2023/03/02 14:26:30;;;;;;;17.10;10.43;;;;;;;;;;5057699;28;20041;-65